createdAt,value
2023-04-21T00:07:21.200Z,18.32
2023-04-21T00:17:27.068Z,18.32
2023-04-21T00:27:33.378Z,18.27
2023-04-21T00:37:39.296Z,18.27
2023-04-21T00:47:44.622Z,18.23
2023-04-21T00:57:50.839Z,18.23
2023-04-21T01:07:57.099Z,18.22
2023-04-21T01:18:03.367Z,18.23
2023-04-21T01:28:09.390Z,18.23
2023-04-21T01:38:17.634Z,18.26
2023-04-21T01:48:25.169Z,18.34
2023-04-21T01:58:31.473Z,18.35
2023-04-21T02:08:37.404Z,18.35
2023-04-21T02:18:43.660Z,18.35
2023-04-21T02:28:49.708Z,18.35
2023-04-21T02:38:55.707Z,18.35
2023-04-21T02:49:02.122Z,18.38
2023-04-21T02:59:07.887Z,18.36
2023-04-21T03:09:14.346Z,18.35
2023-04-21T03:19:20.616Z,18.32
2023-04-21T03:29:26.984Z,18.34
2023-04-21T03:39:33.658Z,18.30
2023-04-21T03:49:40.356Z,18.27
2023-04-21T03:59:46.334Z,18.23
2023-04-21T04:09:52.125Z,18.23
2023-04-21T04:19:58.381Z,18.27
2023-04-21T04:30:04.335Z,14.35
2023-04-21T04:40:08.783Z,14.35
2023-04-21T04:50:13.918Z,12.56
2023-04-21T05:00:19.138Z,10.61
2023-04-21T05:10:27.221Z,12.66
2023-04-21T05:20:34.779Z,16.07
2023-04-21T05:30:41.061Z,16.07
2023-04-21T05:40:47.368Z,16.63
2023-04-21T05:50:53.337Z,16.90
2023-04-21T06:00:59.566Z,17.25
2023-04-21T06:11:05.744Z,17.34
2023-04-21T06:21:11.942Z,17.34
2023-04-21T06:31:18.338Z,17.42
2023-04-21T06:41:24.976Z,17.42
2023-04-21T06:51:31.276Z,17.48
2023-04-21T07:01:37.594Z,17.71
2023-04-21T07:11:44.296Z,17.91
2023-04-21T07:21:50.292Z,17.91
2023-04-21T07:31:56.325Z,18.13
2023-04-21T07:42:02.911Z,18.57
2023-04-21T07:52:09.477Z,18.75
2023-04-21T08:02:15.898Z,18.91
2023-04-21T08:12:22.152Z,18.91
2023-04-21T08:22:28.463Z,19.75
2023-04-21T08:32:34.839Z,19.75
2023-04-21T08:42:40.803Z,19.32
2023-04-21T08:52:46.876Z,19.44
2023-04-21T09:02:59.615Z,19.28
2023-04-21T09:13:03.623Z,19.00
2023-04-21T09:23:09.798Z,18.96
2023-04-21T09:33:27.212Z,18.96
2023-04-21T09:43:27.988Z,18.82
2023-04-21T09:53:34.454Z,18.72
2023-04-21T10:03:40.659Z,18.75
2023-04-21T10:13:47.328Z,18.85
2023-04-21T10:23:53.738Z,18.96
2023-04-21T10:34:00.005Z,18.96
2023-04-21T10:44:06.212Z,18.91
2023-04-21T10:54:12.166Z,18.84
2023-04-21T11:04:18.247Z,18.84
2023-04-21T11:14:25.172Z,18.76
2023-04-21T11:24:31.462Z,18.72
2023-04-21T11:34:38.040Z,18.66
2023-04-21T11:44:44.362Z,18.66
2023-04-21T11:54:50.682Z,18.66
2023-04-21T12:04:57.239Z,18.62
2023-04-21T12:15:03.768Z,18.59
2023-04-21T12:25:10.128Z,18.57
2023-04-21T12:35:16.334Z,18.57
2023-04-21T12:45:23.226Z,18.55
2023-04-21T12:55:29.976Z,18.54
2023-04-21T13:05:36.745Z,18.54
2023-04-21T13:15:43.636Z,18.54
2023-04-21T13:25:50.337Z,18.52
2023-04-21T13:35:56.797Z,18.52
2023-04-21T13:46:03.912Z,18.50
2023-04-21T13:56:10.766Z,18.52
2023-04-21T14:06:17.714Z,18.49
2023-04-21T14:16:24.965Z,18.50
2023-04-21T14:26:31.785Z,18.49
2023-04-21T14:36:38.842Z,18.49
2023-04-21T14:46:57.014Z,18.48
2023-04-21T14:57:10.382Z,18.50
2023-04-21T15:07:09.216Z,18.50
2023-04-21T15:17:16.039Z,18.48
2023-04-21T15:27:22.637Z,18.46
2023-04-21T15:37:29.364Z,18.48
2023-04-21T15:47:36.471Z,18.48
2023-04-21T15:57:43.500Z,18.49
2023-04-21T16:07:50.117Z,18.49
2023-04-21T16:17:57.124Z,18.48
2023-04-21T16:28:03.958Z,18.48
2023-04-21T16:38:10.691Z,18.48
2023-04-21T16:48:17.380Z,18.48
2023-04-21T16:58:23.606Z,18.48
2023-04-21T17:08:30.710Z,18.46
2023-04-21T17:18:37.818Z,18.46
2023-04-21T17:28:44.632Z,18.45
2023-04-21T17:38:51.362Z,18.45
2023-04-21T17:48:57.708Z,18.44
2023-04-21T17:59:04.694Z,18.44
2023-04-21T18:09:10.952Z,18.44
2023-04-21T18:19:17.648Z,18.42
2023-04-21T18:29:24.558Z,18.41
2023-04-21T18:39:31.399Z,18.40
2023-04-21T18:49:37.969Z,18.40
2023-04-21T18:59:44.615Z,18.38
2023-04-21T19:09:51.005Z,18.36
2023-04-21T19:19:57.426Z,18.36
2023-04-21T19:30:04.106Z,18.35
2023-04-21T19:40:10.297Z,18.35
2023-04-21T19:50:19.861Z,18.34
2023-04-21T20:00:26.602Z,18.34
2023-04-21T20:10:33.295Z,18.26
2023-04-21T20:20:40.012Z,18.12
2023-04-21T20:30:46.888Z,18.03
2023-04-21T20:40:53.598Z,18.14
2023-04-21T20:51:00.491Z,18.17
2023-04-21T21:01:07.637Z,18.20
2023-04-21T21:11:14.188Z,18.22
2023-04-21T21:21:20.823Z,18.26
2023-04-21T21:31:27.823Z,18.31
2023-04-21T21:41:34.414Z,18.32
2023-04-21T21:51:41.317Z,18.34
2023-04-21T22:01:48.091Z,18.34
2023-04-21T22:11:54.785Z,18.38
2023-04-21T22:22:01.413Z,18.38
2023-04-21T22:32:08.233Z,18.40
2023-04-21T22:42:15.347Z,18.40
2023-04-21T22:52:22.170Z,18.40
2023-04-21T23:02:29.133Z,18.44
2023-04-21T23:12:36.134Z,18.42
2023-04-21T23:22:42.866Z,18.44
2023-04-21T23:32:49.463Z,18.44
2023-04-21T23:42:56.700Z,18.45
2023-04-21T23:53:03.516Z,18.46
